Time;durP1;ratioP1;P1;durP2;ratioP2;P2;SDS_P1;SDS_P2;PMS_P1;PMS_P2;Temp;Humidity;BMP_temperature;BMP_pressure;BME280_temperature;BME280_humidity;BME280_pressure;Samples;Min_cycle;Max_cycle;Signal;HPM_P1;HPM_P2
2022/07/11 00:00:49;;;;;;;6.60;2.28;;;;;;;16.29;79.09;101384.25;5152091;27;20069;-82
2022/07/11 00:03:53;;;;;;;4.03;2.05;;;;;;;16.30;79.13;101385.94;5152617;27;20049;-81
2022/07/11 00:06:57;;;;;;;5.03;2.03;;;;;;;16.22;79.20;101377.66;5139974;27;20054;-81
2022/07/11 00:10:02;;;;;;;3.63;1.60;;;;;;;16.25;78.92;101374.84;5152422;27;20046;-81
2022/07/11 00:13:05;;;;;;;5.03;1.90;;;;;;;16.21;79.30;101382.09;5152818;27;20049;-81
2022/07/11 00:16:09;;;;;;;4.32;2.10;;;;;;;16.24;79.07;101381.03;5152164;27;20053;-81
2022/07/11 00:19:12;;;;;;;4.32;2.00;;;;;;;16.23;79.31;101380.19;5152121;27;20073;-82
2022/07/11 00:22:16;;;;;;;4.57;1.90;;;;;;;16.26;79.30;101379.16;5150968;27;20426;-83
2022/07/11 00:25:20;;;;;;;3.10;1.60;;;;;;;16.23;79.73;101369.63;5152516;27;20091;-82
2022/07/11 00:28:23;;;;;;;3.30;1.60;;;;;;;16.21;80.19;101368.91;5139511;27;20038;-81
2022/07/11 00:31:27;;;;;;;5.15;2.15;;;;;;;16.31;79.52;101371.81;5152599;27;20050;-81
2022/07/11 00:34:30;;;;;;;3.55;1.70;;;;;;;16.24;79.96;101371.34;5151646;27;20042;-81
2022/07/11 00:37:34;;;;;;;3.85;1.70;;;;;;;16.25;79.80;101366.91;5150709;27;20167;-82
2022/07/11 00:40:37;;;;;;;4.70;2.13;;;;;;;16.24;79.96;101357.28;5151497;27;20126;-81
2022/07/11 00:43:41;;;;;;;7.63;2.15;;;;;;;16.21;80.29;101354.88;5151764;27;20050;-82
2022/07/11 00:46:44;;;;;;;4.13;1.95;;;;;;;16.19;80.46;101362.88;5152244;27;20053;-82
2022/07/11 00:49:48;;;;;;;6.28;1.65;;;;;;;16.22;80.12;101357.41;5152204;27;20095;-82
2022/07/11 00:52:52;;;;;;;3.60;1.60;;;;;;;16.26;79.98;101358.91;5151039;27;20042;-82
2022/07/11 00:55:56;;;;;;;4.20;2.00;;;;;;;16.24;80.38;101359.94;5151213;27;20109;-81
2022/07/11 00:59:01;;;;;;;5.28;1.80;;;;;;;16.24;80.40;101350.25;5151120;27;20050;-81
2022/07/11 01:02:05;;;;;;;6.35;2.33;;;;;;;16.24;80.09;101344.09;5151358;27;20510;-81
2022/07/11 01:05:09;;;;;;;5.03;2.10;;;;;;;16.14;80.80;101348.25;5151728;27;20050;-80
2022/07/11 01:08:12;;;;;;;6.60;2.95;;;;;;;16.17;80.66;101348.06;5131336;27;20078;-82
2022/07/11 01:11:16;;;;;;;3.72;1.83;;;;;;;16.17;80.54;101342.78;5130543;27;20102;-83
2022/07/11 01:14:19;;;;;;;3.42;1.90;;;;;;;16.10;80.89;101338.84;5130951;27;20045;-82
2022/07/11 01:17:23;;;;;;;5.55;2.08;;;;;;;16.03;81.59;101331.31;5130693;27;20054;-82
2022/07/11 01:20:27;;;;;;;4.85;2.10;;;;;;;16.06;81.07;101332.94;5138826;27;20095;-82
2022/07/11 01:23:31;;;;;;;6.60;2.95;;;;;;;16.19;79.84;101336.47;5151576;27;20058;-82
2022/07/11 01:26:34;;;;;;;5.03;2.30;;;;;;;16.28;79.38;101328.00;5151545;27;20049;-82
2022/07/11 01:29:39;;;;;;;4.43;2.20;;;;;;;16.24;80.18;101330.91;5151402;27;20056;-82
2022/07/11 01:32:42;;;;;;;6.28;1.70;;;;;;;16.14;80.77;101324.50;5151251;27;20049;-82
2022/07/11 01:35:45;;;;;;;4.78;2.35;;;;;;;16.10;80.84;101326.50;5150168;27;20037;-82
2022/07/11 01:38:49;;;;;;;3.30;1.70;;;;;;;16.08;80.86;101322.25;5150866;27;20123;-83
2022/07/11 01:41:52;;;;;;;6.28;1.83;;;;;;;16.13;80.90;101317.56;5151111;27;20045;-83
2022/07/11 01:44:56;;;;;;;5.07;2.10;;;;;;;16.10;80.80;101309.84;5151678;27;20046;-83
2022/07/11 01:48:01;;;;;;;4.07;1.67;;;;;;;16.21;80.24;101312.66;5151111;27;20049;-83
2022/07/11 01:51:04;;;;;;;4.85;1.92;;;;;;;16.17;80.97;101321.69;5129928;27;20705;-83
2022/07/11 01:54:09;;;;;;;4.43;2.00;;;;;;;16.10;81.28;101310.69;5129871;27;20072;-82
2022/07/11 01:57:12;;;;;;;3.63;1.83;;;;;;;16.08;81.58;101309.06;5129658;27;20567;-83
2022/07/11 02:00:15;;;;;;;2.92;1.85;;;;;;;16.11;81.37;101304.44;5129973;27;20179;-82
2022/07/11 02:03:19;;;;;;;6.82;2.30;;;;;;;16.02;81.60;101305.91;5138775;27;20564;-82
2022/07/11 02:06:23;;;;;;;4.75;1.95;;;;;;;16.05;81.61;101312.78;5151035;27;20042;-83
2022/07/11 02:09:27;;;;;;;4.55;2.08;;;;;;;16.04;81.46;101303.16;5150547;27;20085;-82
2022/07/11 02:12:30;;;;;;;5.68;2.25;;;;;;;16.04;81.46;101298.72;5150357;27;20045;-82
2022/07/11 02:15:33;;;;;;;3.28;1.80;;;;;;;16.01;81.90;101296.25;5150342;27;20510;-82
2022/07/11 02:18:37;;;;;;;4.32;1.88;;;;;;;15.98;81.93;101293.81;5150159;27;20460;-82
2022/07/11 02:21:40;;;;;;;4.93;2.20;;;;;;;15.96;82.03;101293.09;5150266;27;20532;-82
2022/07/11 02:24:44;;;;;;;4.60;1.70;;;;;;;15.98;82.00;101296.44;5150483;27;20053;-83
2022/07/11 02:27:47;;;;;;;5.93;1.80;;;;;;;16.09;81.87;101297.59;5150488;27;20052;-82
2022/07/11 02:30:51;;;;;;;5.05;1.70;;;;;;;16.06;81.49;101285.44;5150299;27;20164;-82
2022/07/11 02:33:54;;;;;;;4.93;1.95;;;;;;;15.96;82.52;101293.09;5150079;27;20037;-82
2022/07/11 02:36:57;;;;;;;4.07;2.05;;;;;;;16.00;82.32;101291.94;5150224;27;20069;-82
2022/07/11 02:40:02;;;;;;;4.72;1.90;;;;;;;15.94;82.56;101300.22;5150715;27;20099;-82
2022/07/11 02:43:05;;;;;;;5.18;2.20;;;;;;;16.03;82.22;101289.09;5150745;27;20103;-82
2022/07/11 02:46:08;;;;;;;6.90;2.92;;;;;;;16.08;82.09;101290.59;5149898;27;20578;-82
2022/07/11 02:49:11;;;;;;;3.70;2.20;;;;;;;15.98;81.93;101290.34;5150361;27;20087;-82
2022/07/11 02:52:15;;;;;;;5.82;1.80;;;;;;;15.93;81.90;101295.91;5149693;27;20073;-82
2022/07/11 02:55:18;;;;;;;4.00;1.80;;;;;;;15.93;82.12;101305.63;5137487;27;20192;-83
2022/07/11 02:58:21;;;;;;;3.50;1.90;;;;;;;16.14;81.13;101296.34;5136346;27;20081;-83
2022/07/11 03:01:25;;;;;;;5.18;2.20;;;;;;;16.21;80.70;101296.81;5148690;27;20050;-83
2022/07/11 03:04:29;;;;;;;4.32;1.75;;;;;;;16.07;81.36;101300.31;5152885;27;20083;-83
2022/07/11 03:07:32;;;;;;;4.82;2.03;;;;;;;16.03;81.97;101310.22;5139842;27;20049;-83
2022/07/11 03:10:35;;;;;;;3.85;1.80;;;;;;;16.01;82.15;101306.81;5152510;27;20038;-82
2022/07/11 03:13:38;;;;;;;4.45;2.03;;;;;;;15.98;82.56;101312.28;5153272;27;20087;-82
2022/07/11 03:16:42;;;;;;;3.83;1.98;;;;;;;15.90;82.87;101314.56;5132452;27;20069;-82
2022/07/11 03:19:46;;;;;;;4.25;1.85;;;;;;;15.89;83.13;101314.63;5132388;27;20058;-82
2022/07/11 03:22:50;;;;;;;5.20;2.13;;;;;;;15.88;83.19;101312.97;5132327;27;20776;-82
2022/07/11 03:25:53;;;;;;;4.63;2.03;;;;;;;15.95;83.08;101309.88;5132570;27;20222;-81
2022/07/11 03:28:56;;;;;;;4.30;2.20;;;;;;;15.97;82.87;101307.97;5139723;27;20099;-81
2022/07/11 03:32:00;;;;;;;6.13;1.98;;;;;;;15.97;82.89;101313.22;5153222;27;20050;-82
2022/07/11 03:38:25;;;;;;;5.97;2.13;;;;;;;15.97;83.39;101315.88;5143060;27;20096;-82
2022/07/11 03:41:28;;;;;;;4.85;2.60;;;;;;;15.92;83.42;101310.06;5153368;27;20037;-82
2022/07/11 03:44:32;;;;;;;3.45;1.90;;;;;;;15.92;83.31;101310.06;5153130;27;20081;-82
2022/07/11 03:47:36;;;;;;;3.47;2.05;;;;;;;15.89;83.46;101318.16;5153931;27;20056;-83
2022/07/11 03:50:39;;;;;;;3.67;2.05;;;;;;;15.94;83.44;101308.16;5153319;27;20085;-83
2022/07/11 03:53:43;;;;;;;4.65;2.00;;;;;;;15.94;83.75;101309.94;5139047;27;20095;-82
2022/07/11 03:56:47;;;;;;;2.92;2.03;;;;;;;15.96;83.76;101302.78;5152017;27;20037;-82
2022/07/11 03:59:50;;;;;;;4.35;2.47;;;;;;;15.91;83.77;101310.13;5152723;27;20540;-82
2022/07/11 04:02:53;;;;;;;3.88;1.75;;;;;;;15.91;83.74;101310.97;5152566;27;20430;-80
2022/07/11 04:05:57;;;;;;;4.97;2.22;;;;;;;15.97;83.74;101310.59;5152478;27;20049;-83
2022/07/11 04:09:00;;;;;;;3.35;1.90;;;;;;;16.01;83.55;101306.81;5145999;27;20107;-82
2022/07/11 04:12:04;;;;;;;6.05;2.45;;;;;;;15.99;83.33;101305.25;5150850;27;20118;-81
2022/07/11 04:15:08;;;;;;;4.03;1.95;;;;;;;16.03;82.93;101301.47;5151393;27;20038;-82
2022/07/11 04:18:11;;;;;;;4.22;1.95;;;;;;;16.02;82.79;101300.63;5139525;27;20114;-81
2022/07/11 04:21:15;;;;;;;6.10;2.30;;;;;;;16.09;82.26;101302.88;5149382;27;20046;-69
2022/07/11 04:24:18;;;;;;;4.82;2.10;;;;;;;16.13;82.61;101299.94;5152003;27;20598;-72
2022/07/11 04:27:21;;;;;;;3.65;2.08;;;;;;;16.24;82.17;101301.88;5141550;27;20042;-74
2022/07/11 04:30:25;;;;;;;3.70;1.80;;;;;;;16.16;82.83;101299.75;5130759;27;20049;-78
2022/07/11 04:33:29;;;;;;;4.43;2.00;;;;;;;16.21;82.33;101300.31;5130694;27;20049;-80
2022/07/11 04:36:35;;;;;;;4.55;1.85;;;;;;;16.21;82.58;101312.66;5130756;27;20080;-81
2022/07/11 04:39:38;;;;;;;4.38;2.10;;;;;;;16.17;82.21;101309.34;5131453;27;20073;-80
2022/07/11 04:42:42;;;;;;;3.85;1.90;;;;;;;16.13;82.69;101305.19;5132097;27;20411;-73
2022/07/11 04:45:45;;;;;;;3.65;1.90;;;;;;;16.22;82.50;101314.34;5131047;27;20092;-80
2022/07/11 04:48:49;;;;;;;4.90;2.20;;;;;;;16.19;82.22;101309.25;5130027;27;20095;-81
2022/07/11 04:51:52;;;;;;;3.60;1.83;;;;;;;16.33;81.30;101309.22;5131010;27;20038;-81
2022/07/11 04:54:56;;;;;;;5.35;1.85;;;;;;;16.30;81.55;101316.47;5136044;27;20414;-80
2022/07/11 04:57:59;;;;;;;5.00;1.70;;;;;;;16.51;80.58;101323.03;5151554;27;20115;-81
2022/07/11 05:01:03;;;;;;;4.57;1.95;;;;;;;16.66;79.94;101323.84;5152073;27;20074;-82
2022/07/11 05:04:07;;;;;;;3.55;1.70;;;;;;;16.70;79.38;101320.03;5151623;27;20643;-67
2022/07/11 05:07:12;;;;;;;3.67;1.48;;;;;;;16.76;79.53;101324.97;5110179;28;20047;-67
2022/07/11 05:10:16;;;;;;;2.60;1.60;;;;;;;16.56;80.57;101330.63;5110146;28;20101;-67
2022/07/11 05:13:19;;;;;;;5.22;2.13;;;;;;;16.55;80.81;101334.22;5109971;28;20128;-68
2022/07/11 05:16:23;;;;;;;4.13;1.80;;;;;;;16.75;79.71;101339.09;5109581;28;20400;-68
2022/07/11 05:19:26;;;;;;;4.90;2.00;;;;;;;16.90;78.94;101326.69;5109704;28;20104;-67
2022/07/11 05:22:30;;;;;;;4.00;1.67;;;;;;;16.95;78.47;101328.09;5110436;28;20116;-67
2022/07/11 05:25:33;;;;;;;4.10;2.05;;;;;;;16.99;78.34;101338.44;5108688;28;20096;-67
2022/07/11 05:28:36;;;;;;;4.72;2.05;;;;;;;16.81;79.25;101338.69;5109237;28;20116;-67
2022/07/11 05:31:40;;;;;;;4.10;2.15;;;;;;;16.69;80.56;101342.13;5109422;28;20078;-67
2022/07/11 05:34:43;;;;;;;3.55;1.83;;;;;;;16.84;79.86;101342.94;5109623;28;20038;-66
2022/07/11 05:37:46;;;;;;;3.72;1.95;;;;;;;16.99;79.11;101343.72;5109153;28;20092;-66
2022/07/11 05:40:50;;;;;;;3.13;1.95;;;;;;;16.82;79.98;101350.97;5110062;28;20054;-67
2022/07/11 05:43:53;;;;;;;3.42;1.77;;;;;;;16.83;80.41;101349.19;5109171;28;20047;-67
2022/07/11 05:47:01;;;;;;;3.20;1.52;;;;;;;16.99;79.73;101349.00;5104925;28;20089;-67
2022/07/11 05:50:05;;;;;;;4.32;1.80;;;;;;;17.10;78.78;101346.50;5088502;28;20043;-67
2022/07/11 05:53:10;;;;;;;9.18;1.90;;;;;;;17.18;78.01;101347.69;5104021;28;20038;-82
2022/07/11 05:56:14;;;;;;;5.00;1.90;;;;;;;17.31;77.67;101353.00;5105378;28;20561;-81
2022/07/11 05:59:17;;;;;;;3.55;1.67;;;;;;;17.28;78.13;101342.63;5109740;28;20144;-79
2022/07/11 06:02:20;;;;;;;6.43;1.98;;;;;;;17.18;78.83;101352.97;5109746;28;20105;-80
2022/07/11 06:05:24;;;;;;;4.03;1.92;;;;;;;17.10;79.06;101346.50;5127216;27;20581;-81
2022/07/11 06:08:42;;;;;;;4.05;1.88;;;;;;;17.19;79.02;101345.88;5128283;27;20046;-80
2022/07/11 06:11:46;;;;;;;4.95;1.85;;;;;;;17.36;78.17;101345.59;5129809;27;20807;-80
2022/07/11 06:14:49;;;;;;;3.22;1.70;;;;;;;17.36;77.85;101340.31;5138379;27;20559;-80
2022/07/11 06:17:54;;;;;;;4.30;2.08;;;;;;;17.39;77.94;101337.47;5148626;27;20054;-79
2022/07/11 06:20:57;;;;;;;3.88;1.88;;;;;;;17.31;78.07;101339.78;5135299;27;20091;-79
2022/07/11 06:24:00;;;;;;;5.07;2.10;;;;;;;17.42;77.97;101345.19;5148965;27;20581;-78
2022/07/11 06:27:04;;;;;;;4.00;1.65;;;;;;;17.40;77.71;101347.09;5149319;27;20046;-77
2022/07/11 06:30:08;;;;;;;4.03;1.45;;;;;;;17.32;77.75;101340.63;5149085;27;20069;-67
2022/07/11 06:33:11;;;;;;;3.17;1.73;;;;;;;17.39;78.50;101353.34;5149460;27;20057;-69
2022/07/11 06:36:15;;;;;;;5.30;2.63;;;;;;;17.49;77.12;101350.06;5149088;27;20467;-68
2022/07/11 06:39:18;;;;;;;8.82;2.95;;;;;;;17.52;75.76;101349.84;5153579;27;20046;-68
2022/07/11 06:42:21;;;;;;;9.23;2.85;;;;;;;17.42;76.03;101350.47;5154188;27;20414;-68
2022/07/11 06:45:25;;;;;;;8.13;3.13;;;;;;;17.33;75.68;101356.38;5154255;27;20041;-70
2022/07/11 06:48:28;;;;;;;8.05;3.40;;;;;;;17.56;74.64;101346.88;5153224;27;20041;-68
2022/07/11 06:51:32;;;;;;;8.68;3.40;;;;;;;17.71;74.30;101357.34;5150951;27;20045;-69
2022/07/11 06:54:35;;;;;;;9.90;3.40;;;;;;;17.81;73.53;101353.16;5150970;27;20038;-69
2022/07/11 06:57:38;;;;;;;7.85;3.15;;;;;;;17.81;73.92;101355.81;5151537;27;20052;-69
2022/07/11 07:00:42;;;;;;;10.82;3.83;;;;;;;17.79;72.99;101360.34;5152728;27;20046;-68
2022/07/11 07:03:46;;;;;;;8.68;3.63;;;;;;;17.86;72.90;101353.69;5151976;27;20533;-68
2022/07/11 07:06:49;;;;;;;8.77;5.30;;;;;;;17.87;72.34;101358.88;5152086;27;20041;-68
2022/07/11 07:09:54;;;;;;;8.98;5.50;;;;;;;17.82;73.47;101357.50;5151460;27;20049;-71
2022/07/11 07:12:57;;;;;;;13.02;5.68;;;;;;;17.86;72.72;101354.50;5152073;27;20053;-67
2022/07/11 07:16:00;;;;;;;11.65;6.18;;;;;;;17.73;73.04;101358.94;5152188;27;20037;-67
2022/07/11 07:19:03;;;;;;;14.70;6.78;;;;;;;17.92;72.71;101353.25;5151823;27;20046;-69
2022/07/11 07:22:08;;;;;;;11.93;6.03;;;;;;;18.02;72.76;101359.59;5152433;27;20053;-67
2022/07/11 07:25:11;;;;;;;11.30;6.78;;;;;;;17.97;72.25;101352.94;5151533;27;20045;-67
2022/07/11 07:28:14;;;;;;;10.95;6.72;;;;;;;17.85;73.00;101354.63;5138577;27;20098;-68
2022/07/11 07:31:19;;;;;;;10.60;6.40;;;;;;;17.80;72.78;101367.31;5150578;27;20081;-67
2022/07/11 07:34:22;;;;;;;10.30;6.25;;;;;;;17.92;72.28;101369.13;5151657;27;20089;-68
2022/07/11 07:37:26;;;;;;;11.50;6.05;;;;;;;17.85;72.95;101365.22;5152202;27;20033;-68
2022/07/11 07:40:29;;;;;;;9.43;6.55;;;;;;;17.82;73.40;101365.44;5139302;27;20338;-67
2022/07/11 07:43:33;;;;;;;8.25;5.45;;;;;;;17.91;72.24;101369.25;5151405;27;20499;-68
2022/07/11 07:46:36;;;;;;;9.48;6.20;;;;;;;17.72;72.46;101367.84;5150183;27;20122;-68
2022/07/11 07:49:40;;;;;;;9.38;6.13;;;;;;;17.63;72.71;101369.31;5139381;27;20077;-68
2022/07/11 07:52:43;;;;;;;9.27;5.20;;;;;;;17.69;73.14;101370.69;5152938;27;20049;-68
2022/07/11 07:55:46;;;;;;;8.85;4.68;;;;;;;17.61;73.05;101371.22;5152239;27;20042;-68
2022/07/11 07:58:51;;;;;;;7.32;5.00;;;;;;;17.59;73.11;101381.06;5152614;27;20688;-67
2022/07/11 08:01:55;;;;;;;9.50;6.20;;;;;;;17.60;73.26;101368.69;5151544;27;20049;-67
2022/07/11 08:05:02;;;;;;;7.50;5.18;;;;;;;17.65;73.15;101377.16;5151298;27;20088;-69
2022/07/11 08:08:06;;;;;;;8.32;5.47;;;;;;;17.58;72.90;101378.50;5151574;27;20126;-67
2022/07/11 08:11:09;;;;;;;12.02;6.30;;;;;;;17.66;72.67;101382.31;5139402;27;20061;-67
2022/07/11 08:14:12;;;;;;;9.05;5.70;;;;;;;17.68;73.13;101376.94;5152563;27;20451;-67
2022/07/11 08:17:15;;;;;;;10.57;5.20;;;;;;;17.79;72.61;101386.81;5131424;27;20088;-67
2022/07/11 08:20:19;;;;;;;9.13;4.45;;;;;;;17.72;71.81;101386.34;5130726;27;20050;-68
2022/07/11 08:23:23;;;;;;;6.13;4.13;;;;;;;17.88;71.95;101392.31;5130963;27;20104;-67
2022/07/11 08:26:27;;;;;;;9.35;4.65;;;;;;;17.92;71.57;101389.44;5130490;27;20046;-67
2022/07/11 08:29:31;;;;;;;11.50;5.60;;;;;;;17.87;71.38;101393.28;5137976;27;20045;-67
2022/07/11 08:32:38;;;;;;;8.65;5.10;;;;;;;17.90;71.36;101389.56;5151966;27;20041;-67
2022/07/11 08:35:42;;;;;;;6.90;5.05;;;;;;;17.93;70.94;101391.13;5152161;27;20045;-67
2022/07/11 08:38:46;;;;;;;7.05;6.35;;;;;;;18.00;70.53;101392.44;5151986;27;20053;-67
2022/07/11 08:41:49;;;;;;;6.97;5.03;;;;;;;18.05;70.14;101385.00;5151121;27;20098;-67
2022/07/11 08:44:55;;;;;;;9.27;6.13;;;;;;;18.14;70.86;101392.28;5150823;27;20049;-68
2022/07/11 08:48:00;;;;;;;8.35;5.90;;;;;;;18.15;70.59;101379.91;5151244;27;20087;-68
2022/07/11 08:51:05;;;;;;;13.55;10.77;;;;;;;18.09;70.44;101391.75;5151145;27;20046;-67
2022/07/11 08:54:11;;;;;;;9.35;6.78;;;;;;;18.12;70.00;101391.53;5151187;27;20108;-67
2022/07/11 08:57:15;;;;;;;8.27;5.57;;;;;;;18.16;70.12;101382.44;5151829;27;20041;-66
2022/07/11 09:00:19;;;;;;;6.72;5.13;;;;;;;18.07;70.09;101388.38;5130186;27;20118;-76
2022/07/11 09:03:22;;;;;;;12.52;4.63;;;;;;;18.23;69.77;101372.28;5130454;27;20042;-76
2022/07/11 09:06:26;;;;;;;9.27;4.35;;;;;;;18.36;69.14;101379.22;5144859;27;20053;-77
2022/07/11 09:09:31;;;;;;;7.28;4.57;;;;;;;18.35;69.63;101379.34;5150732;27;20100;-77
2022/07/11 09:12:34;;;;;;;5.47;4.25;;;;;;;18.31;68.97;101369.91;5150136;27;20091;-78
2022/07/11 09:15:39;;;;;;;8.75;4.20;;;;;;;18.39;69.44;101364.09;5144933;27;20403;-77
2022/07/11 09:18:44;;;;;;;4.45;3.60;;;;;;;18.38;68.94;101365.88;5144634;27;20115;-78
2022/07/11 09:25:34;;;;;;;7.18;3.92;;;;;;;18.52;68.67;101368.38;5150920;27;20045;-77
2022/07/11 09:29:01;;;;;;;5.35;3.72;;;;;;;18.47;68.68;101359.06;5131451;27;20064;-77
2022/07/11 09:32:05;;;;;;;5.72;3.72;;;;;;;18.55;68.38;101354.06;5138011;27;20545;-78
2022/07/11 09:35:11;;;;;;;5.30;3.67;;;;;;;18.65;68.05;101363.03;5129754;27;20045;-78
2022/07/11 09:38:16;;;;;;;5.75;3.83;;;;;;;18.69;67.30;101351.25;5130119;27;20184;-74
2022/07/11 09:41:19;;;;;;;7.70;3.25;;;;;;;18.83;67.09;101354.75;5139599;27;20066;-76
2022/07/11 09:44:33;;;;;;;5.10;3.65;;;;;;;19.08;66.96;101348.44;5151013;27;20099;-80
2022/07/11 09:47:50;;;;;;;5.03;3.15;;;;;;;19.32;65.68;101343.09;5151091;27;20092;-78
2022/07/11 09:50:56;;;;;;;4.90;3.47;;;;;;;19.47;65.29;101347.25;5150481;27;20463;-77
2022/07/11 09:54:00;;;;;;;7.70;3.05;;;;;;;19.03;65.29;101346.16;5150535;27;20081;-76
2022/07/11 09:57:10;;;;;;;4.88;2.92;;;;;;;19.11;65.28;101343.75;5129977;27;20038;-76
2022/07/11 10:00:14;;;;;;;4.25;2.40;;;;;;;19.26;65.40;101350.53;5130490;27;20076;-76
2022/07/11 10:03:21;;;;;;;6.20;2.90;;;;;;;19.18;64.51;101360.06;5130556;27;20114;-75
2022/07/11 10:06:26;;;;;;;5.70;2.80;;;;;;;19.44;64.22;101356.28;5129753;27;20735;-76
2022/07/11 10:09:30;;;;;;;3.08;2.00;;;;;;;19.35;63.47;101358.78;5134955;27;20046;-76
2022/07/11 10:12:33;;;;;;;4.55;2.15;;;;;;;19.23;63.65;101352.59;5152833;27;20053;-77
2022/07/11 10:15:44;;;;;;;3.85;2.05;;;;;;;19.32;63.30;101351.91;5154445;27;20099;-77
2022/07/11 10:18:58;;;;;;;4.35;2.17;;;;;;;19.31;63.24;101354.69;5154412;27;20514;-77
2022/07/11 10:22:32;;;;;;;5.30;1.98;;;;;;;19.41;63.65;101360.97;5154433;27;20045;-76
2022/07/11 10:25:42;;;;;;;4.15;2.22;;;;;;;19.60;63.25;101355.94;5133163;27;20041;-78
2022/07/11 10:28:51;;;;;;;3.92;2.22;;;;;;;19.70;62.59;101356.09;5133443;27;20050;-77
2022/07/11 10:32:05;;;;;;;3.55;2.25;;;;;;;19.57;63.31;101355.34;5133352;27;20041;-76
2022/07/11 10:35:11;;;;;;;4.78;2.20;;;;;;;19.88;62.62;101362.63;5133216;27;20050;-77
2022/07/11 10:38:14;;;;;;;3.35;2.10;;;;;;;19.79;62.79;101357.22;5140328;27;20108;-76
2022/07/11 10:41:22;;;;;;;4.38;2.22;;;;;;;19.93;61.88;101351.66;5153799;27;20088;-76
2022/07/11 10:44:27;;;;;;;3.70;2.35;;;;;;;20.28;61.01;101348.84;5154068;27;20479;-77
2022/07/11 10:47:41;;;;;;;9.80;2.50;;;;;;;20.41;60.91;101351.34;5154094;27;20119;-76
2022/07/11 10:50:46;;;;;;;3.60;2.20;;;;;;;20.51;59.98;101354.13;5153978;27;20077;-77
2022/07/11 10:53:57;;;;;;;4.75;2.80;;;;;;;20.55;61.53;101342.28;5153734;27;20053;-78
2022/07/11 10:57:09;;;;;;;3.35;2.13;;;;;;;20.54;60.50;101343.28;5154054;27;20134;-78
2022/07/11 11:00:20;;;;;;;3.20;1.87;;;;;;;20.37;61.23;101344.63;5153888;27;20049;-78
2022/07/11 11:03:25;;;;;;;4.47;2.03;;;;;;;20.06;60.28;101352.38;5153873;27;20316;-78
2022/07/11 11:06:57;;;;;;;5.25;2.75;;;;;;;20.17;61.21;101360.34;5139882;27;20324;-77
2022/07/11 11:10:08;;;;;;;2.97;2.22;;;;;;;20.05;60.42;101345.38;5154482;27;20621;-79
2022/07/11 11:13:11;;;;;;;4.53;2.28;;;;;;;20.43;59.99;101352.94;5154123;27;20115;-79
2022/07/11 11:16:24;;;;;;;4.47;2.05;;;;;;;20.27;60.34;101359.59;5153881;27;20033;-81
2022/07/11 11:19:47;;;;;;;;;;;;;;;20.27;59.89;101356.94;5154263;27;20041;-78
2022/07/11 11:23:19;;;;;;;2.85;2.00;;;;;;;20.40;59.56;101358.50;5152493;27;19917;-81
2022/07/11 11:26:22;;;;;;;3.45;2.42;;;;;;;20.44;60.03;101351.94;5140489;27;20083;-78
2022/07/11 11:29:29;;;;;;;4.50;2.30;;;;;;;20.20;61.51;101348.63;5140866;27;20103;-78
2022/07/11 11:32:34;;;;;;;4.88;2.78;;;;;;;20.41;61.48;101356.66;5153813;27;20130;-78
2022/07/11 11:35:38;;;;;;;5.20;3.97;;;;;;;20.56;61.70;101355.47;5153055;27;20565;-81
2022/07/11 11:38:43;;;;;;;4.65;3.30;;;;;;;20.34;61.91;101360.78;5153396;27;20056;-85
2022/07/11 11:41:47;;;;;;;5.55;3.90;;;;;;;20.17;62.39;101363.00;5153072;27;20050;-78
2022/07/11 11:45:41;;;;;;;6.10;3.47;;;;;;;20.15;62.95;101364.06;5152702;27;20069;-82
2022/07/11 11:48:47;;;;;;;5.22;4.20;;;;;;;20.30;62.54;101360.19;5152042;27;20082;-80
2022/07/11 11:51:55;;;;;;;6.00;4.25;;;;;;;20.70;61.60;101366.78;5153674;27;20046;-81
2022/07/11 11:55:04;;;;;;;9.18;4.32;;;;;;;20.87;60.96;101364.44;5147256;27;20415;-75
2022/07/11 11:58:08;;;;;;;7.78;4.35;;;;;;;20.73;61.05;101367.38;5153038;27;20099;-77
2022/07/11 12:01:12;;;;;;;6.68;4.93;;;;;;;20.89;61.29;101366.97;5152785;27;20138;-77
2022/07/11 12:04:16;;;;;;;7.25;4.65;;;;;;;20.81;61.38;101362.28;5152316;27;20114;-74
2022/07/11 12:07:26;;;;;;;5.53;4.57;;;;;;;20.83;61.75;101356.81;5152568;27;20045;-76
2022/07/11 12:10:30;;;;;;;5.60;4.65;;;;;;;20.82;61.76;101355.16;5152104;27;20063;-76
2022/07/11 12:13:34;;;;;;;5.30;4.18;;;;;;;20.66;61.10;101351.09;5139557;27;20480;-77
2022/07/11 12:16:49;;;;;;;8.23;4.70;;;;;;;20.69;61.17;101354.47;5152786;27;20127;-76
2022/07/11 12:19:53;;;;;;;8.40;4.80;;;;;;;20.77;61.49;101352.00;5139287;27;20050;-77
2022/07/11 12:22:56;;;;;;;7.60;4.25;;;;;;;20.89;60.25;101348.34;5152542;27;20101;-71
2022/07/11 12:25:59;;;;;;;6.50;4.38;;;;;;;20.77;61.49;101360.00;5152624;27;20077;-75
2022/07/11 12:29:11;;;;;;;5.65;4.70;;;;;;;20.56;62.28;101359.94;5152051;27;20041;-75
2022/07/11 12:32:15;;;;;;;5.93;4.03;;;;;;;20.43;62.21;101360.91;5152375;27;20716;-76
2022/07/11 12:35:19;;;;;;;5.53;4.55;;;;;;;20.52;61.81;101369.13;5150926;27;20671;-75
2022/07/11 12:38:46;;;;;;;5.80;4.43;;;;;;;20.73;60.77;101355.91;5139428;27;20100;-73
2022/07/11 12:41:54;;;;;;;5.32;4.05;;;;;;;20.88;60.51;101359.97;5138670;27;20053;-79
2022/07/11 12:45:10;;;;;;;5.47;4.38;;;;;;;20.96;60.88;101359.31;5134704;27;20049;-72
2022/07/11 12:48:15;;;;;;;4.53;3.80;;;;;;;21.32;59.19;101352.75;5146152;27;20049;-73
2022/07/11 12:51:40;;;;;;;5.32;3.92;;;;;;;21.28;59.56;101356.63;5149632;27;20158;-81
2022/07/11 12:54:46;;;;;;;7.13;4.30;;;;;;;20.66;60.54;101356.41;5149799;27;20041;-81
2022/07/11 13:01:55;;;;;;;5.30;3.60;;;;;;;20.51;61.90;101351.47;5149168;27;20089;-81
2022/07/11 13:04:58;;;;;;;6.20;3.53;;;;;;;20.51;61.60;101354.13;5148810;27;20559;-77
2022/07/11 13:11:30;;;;;;;4.35;3.38;;;;;;;21.12;59.45;101352.63;5147371;27;20095;-81
2022/07/11 13:18:13;;;;;;;4.30;3.40;;;;;;;21.14;59.49;101345.34;5128183;27;20070;-83
2022/07/11 13:21:17;;;;;;;3.22;2.53;;;;;;;21.48;58.51;101331.88;5138077;27;20061;-82
2022/07/11 13:24:21;;;;;;;4.90;2.95;;;;;;;21.79;56.99;101345.19;5128156;27;20403;-76
2022/07/11 13:27:25;;;;;;;3.58;3.00;;;;;;;21.33;57.31;101336.66;5127357;27;20100;-75
2022/07/11 13:30:30;;;;;;;5.00;2.97;;;;;;;22.32;55.60;101323.69;5137958;27;20408;-80
2022/07/11 13:33:33;;;;;;;3.90;2.42;;;;;;;22.65;54.24;101326.94;5142987;27;20095;-79
2022/07/11 13:36:37;;;;;;;3.47;2.22;;;;;;;22.94;53.51;101322.50;5138706;27;20511;-79
2022/07/11 13:39:41;;;;;;;3.88;3.10;;;;;;;22.96;53.22;101315.19;5132803;27;20097;-79
2022/07/11 13:42:50;;;;;;;3.95;2.42;;;;;;;22.46;54.96;101323.31;5127316;27;20617;-79
2022/07/11 13:45:53;;;;;;;3.42;2.15;;;;;;;22.60;53.37;101323.88;5128093;27;20096;-80
2022/07/11 13:49:03;;;;;;;3.50;2.40;;;;;;;22.48;54.25;101313.31;5128927;27;20049;-80
2022/07/11 13:52:23;;;;;;;3.88;2.72;;;;;;;21.98;55.16;101321.31;5128305;27;20097;-78
2022/07/11 13:55:30;;;;;;;3.45;2.15;;;;;;;21.98;56.08;101318.63;5115374;28;20440;-81
2022/07/11 13:58:34;;;;;;;4.28;2.03;;;;;;;22.19;55.45;101325.75;5134278;27;20045;-80
2022/07/11 14:01:40;;;;;;;3.47;2.35;;;;;;;22.12;55.38;101330.75;5148157;27;20045;-77
2022/07/11 14:04:46;;;;;;;3.20;2.10;;;;;;;21.87;55.17;101331.22;5136147;27;20068;-80
2022/07/11 14:07:52;;;;;;;2.75;2.03;;;;;;;21.59;56.57;101329.13;5148675;27;20088;-78
2022/07/11 14:10:55;;;;;;;4.88;2.00;;;;;;;21.70;56.40;101335.38;5149670;27;20049;-78
2022/07/11 14:13:59;;;;;;;3.38;1.98;;;;;;;22.26;54.33;101326.91;5149121;27;20315;-79
2022/07/11 14:17:05;;;;;;;3.88;2.13;;;;;;;22.03;55.08;101324.41;5148971;27;20045;-78
2022/07/11 14:20:10;;;;;;;5.15;2.38;;;;;;;21.56;56.53;101326.72;5148752;27;20046;-77
2022/07/11 14:23:13;;;;;;;3.92;2.60;;;;;;;21.80;56.68;101333.59;5148426;27;20050;-80
2022/07/11 14:26:17;;;;;;;3.72;2.20;;;;;;;21.61;57.37;101317.53;5148789;27;20072;-77
2022/07/11 14:29:21;;;;;;;3.83;2.50;;;;;;;22.13;54.82;101320.94;5149267;27;20042;-74
2022/07/11 14:32:25;;;;;;;3.00;2.13;;;;;;;22.51;54.37;101321.03;5149348;27;20090;-80
2022/07/11 14:35:35;;;;;;;4.07;2.35;;;;;;;22.23;55.77;101327.16;5149855;27;20049;-72
2022/07/11 14:38:40;;;;;;;3.65;2.33;;;;;;;21.91;55.45;101322.81;5149482;27;20050;-78